Nagaleader — VRDD5 — position and weather

sailwx.info

Track history (hours):
 
Tides and Currents Weather Stations Pressure Air Temp Water Temp Dewpoint Dewpoint Depression Visibility Wind Speed Wind Dir Waves Ship Positions

Nagaleader

Last reported at 2017-Mar-28 05:33 UTC. Time now 2017-Mar-28 06:07 UTC.
Position N 22°42' E 120°08'.

Length 113 m; draft 6.1 m.

Type: Cargo ship. MMSI: 477926700.

Date/timePositionNaut miles runAvg speedWind from/ knotsBaromVisibWave heightAir tempDewpointWater temp
2017-Mar-28 05:33N 22°42' E 120°08'1211.6
2017-Mar-28 04:33N 22°33' E 120°16'3 0.3
2017-Mar-27 18:33N 22°34' E 120°19'0 0.3
2017-Mar-27 17:31N 22°34' E 120°19'0 0.0
2017-Mar-27 16:28N 22°34' E 120°19'0 0.0
2017-Mar-27 15:31N 22°34' E 120°19'0 0.0
2017-Mar-27 14:31N 22°34' E 120°19'0 0.0
2017-Mar-27 13:31N 22°34' E 120°19'3 2.8
2017-Mar-27 12:34N 22°33' E 120°16'4 4.4
2017-Mar-27 11:34N 22°33' E 120°11'1211.5
2017-Mar-27 10:33N 22°44' E 120°06'  
2017-Mar-25 03:33N 22°47' E 120°06'1110.9
2017-Mar-25 02:33N 22°38' E 120°11'9 8.6
2017-Mar-25 01:33N 22°33' E 120°19'1 0.5
2017-Mar-25 00:33N 22°34' E 120°19'0 0.0
2017-Mar-24 23:30N 22°34' E 120°19'0 0.0
2017-Mar-24 22:24N 22°34' E 120°19'0 0.0
2017-Mar-24 21:33N 22°34' E 120°19'0 0.0
2017-Mar-24 20:33N 22°34' E 120°19'0 0.0
2017-Mar-24 19:33N 22°34' E 120°19'0 0.0
2017-Mar-24 18:33N 22°34' E 120°19'1 1.1
2017-Mar-24 17:31N 22°33' E 120°20'0 0.0
2017-Mar-24 16:28N 22°33' E 120°20'0 0.0
2017-Mar-24 14:31N 22°33' E 120°20'0 0.0
2017-Mar-24 13:31N 22°33' E 120°20'0 0.0
2017-Mar-24 11:33N 22°33' E 120°20'4 3.9
2017-Mar-24 10:33N 22°32' E 120°16'1 0.5
2017-Mar-24 09:33N 22°31' E 120°16'0 0.1
2017-Mar-24 08:33N 22°31' E 120°16'0 0.0
2017-Mar-24 07:33N 22°31' E 120°16'0 0.1
2017-Mar-24 06:33N 22°32' E 120°16'9 8.8
2017-Mar-24 05:33N 22°38' E 120°10'  
2017-Mar-21 06:34N 22°55' E 119°48'1212.0
2017-Mar-21 05:33N 22°46' E 119°58'1211.9
2017-Mar-21 04:34N 22°40' E 120°09'9 9.3
2017-Mar-21 03:33N 22°35' E 120°18'2 2.1
2017-Mar-21 02:32N 22°34' E 120°19'0 0.0
2017-Mar-21 01:33N 22°34' E 120°19'0 0.0
2017-Mar-21 00:33N 22°34' E 120°19'0 0.0
2017-Mar-20 23:34N 22°34' E 120°19'0 0.0
2017-Mar-20 22:33N 22°34' E 120°19'0 0.0
2017-Mar-20 21:34N 22°34' E 120°19'0 0.0
2017-Mar-20 20:30N 22°34' E 120°19'0 0.0
2017-Mar-20 19:33N 22°34' E 120°19'0 0.0
2017-Mar-20 18:34N 22°34' E 120°19'0 0.0
2017-Mar-20 17:33N 22°34' E 120°19'0 0.0
2017-Mar-20 16:33N 22°34' E 120°19'1 0.8
2017-Mar-20 15:33N 22°33' E 120°18'9 8.5
2017-Mar-20 14:33N 22°37' E 120°10'1110.9
2017-Mar-20 13:33N 22°47' E 120°05'  
2017-Mar-18 06:21N 22°51' E 120°05'  
Track history (hours):
 
Tides and Currents Weather Stations Pressure Air Temp Water Temp Dewpoint Dewpoint Depression Visibility Wind Speed Wind Dir Waves Ship Positions

Nagaleader

Last reported at 2017-Mar-28 05:33 UTC. Time now 2017-Mar-28 06:07 UTC.
Position N 22°42' E 120°08'.

Length 113 m; draft 6.1 m.

Type: Cargo ship. MMSI: 477926700.

Date/timePositionNaut miles runAvg speedWind from/ knotsBaromVisibWave heightAir tempDewpointWater temp
2017-Mar-28 05:33N 22°42' E 120°08'1211.6
2017-Mar-28 04:33N 22°33' E 120°16'3 0.3
2017-Mar-27 18:33N 22°34' E 120°19'0 0.3
2017-Mar-27 17:31N 22°34' E 120°19'0 0.0
2017-Mar-27 16:28N 22°34' E 120°19'0 0.0
2017-Mar-27 15:31N 22°34' E 120°19'0 0.0
2017-Mar-27 14:31N 22°34' E 120°19'0 0.0
2017-Mar-27 13:31N 22°34' E 120°19'3 2.8
2017-Mar-27 12:34N 22°33' E 120°16'4 4.4
2017-Mar-27 11:34N 22°33' E 120°11'1211.5
2017-Mar-27 10:33N 22°44' E 120°06'  
2017-Mar-25 03:33N 22°47' E 120°06'1110.9
2017-Mar-25 02:33N 22°38' E 120°11'9 8.6
2017-Mar-25 01:33N 22°33' E 120°19'1 0.5
2017-Mar-25 00:33N 22°34' E 120°19'0 0.0
2017-Mar-24 23:30N 22°34' E 120°19'0 0.0
2017-Mar-24 22:24N 22°34' E 120°19'0 0.0
2017-Mar-24 21:33N 22°34' E 120°19'0 0.0
2017-Mar-24 20:33N 22°34' E 120°19'0 0.0
2017-Mar-24 19:33N 22°34' E 120°19'0 0.0
2017-Mar-24 18:33N 22°34' E 120°19'1 1.1
2017-Mar-24 17:31N 22°33' E 120°20'0 0.0
2017-Mar-24 16:28N 22°33' E 120°20'0 0.0
2017-Mar-24 14:31N 22°33' E 120°20'0 0.0
2017-Mar-24 13:31N 22°33' E 120°20'0 0.0
2017-Mar-24 11:33N 22°33' E 120°20'4 3.9
2017-Mar-24 10:33N 22°32' E 120°16'1 0.5
2017-Mar-24 09:33N 22°31' E 120°16'0 0.1
2017-Mar-24 08:33N 22°31' E 120°16'0 0.0
2017-Mar-24 07:33N 22°31' E 120°16'0 0.1
2017-Mar-24 06:33N 22°32' E 120°16'9 8.8
2017-Mar-24 05:33N 22°38' E 120°10'  
2017-Mar-21 06:34N 22°55' E 119°48'1212.0
2017-Mar-21 05:33N 22°46' E 119°58'1211.9
2017-Mar-21 04:34N 22°40' E 120°09'9 9.3
2017-Mar-21 03:33N 22°35' E 120°18'2 2.1
2017-Mar-21 02:32N 22°34' E 120°19'0 0.0
2017-Mar-21 01:33N 22°34' E 120°19'0 0.0
2017-Mar-21 00:33N 22°34' E 120°19'0 0.0
2017-Mar-20 23:34N 22°34' E 120°19'0 0.0
2017-Mar-20 22:33N 22°34' E 120°19'0 0.0
2017-Mar-20 21:34N 22°34' E 120°19'0 0.0
2017-Mar-20 20:30N 22°34' E 120°19'0 0.0
2017-Mar-20 19:33N 22°34' E 120°19'0 0.0
2017-Mar-20 18:34N 22°34' E 120°19'0 0.0
2017-Mar-20 17:33N 22°34' E 120°19'0 0.0
2017-Mar-20 16:33N 22°34' E 120°19'1 0.8
2017-Mar-20 15:33N 22°33' E 120°18'9 8.5
2017-Mar-20 14:33N 22°37' E 120°10'1110.9
2017-Mar-20 13:33N 22°47' E 120°05'  
2017-Mar-18 06:21N 22°51' E 120°05'  

Dump ship's entire track history